createdAt,value
2022-09-18T00:00:19.670Z,12.09
2022-09-18T00:02:52.581Z,12.08
2022-09-18T00:05:22.826Z,12.09
2022-09-18T00:07:53.019Z,12.14
2022-09-18T00:10:23.335Z,12.14
2022-09-18T00:12:53.577Z,12.09
2022-09-18T00:15:23.798Z,12.10
2022-09-18T00:17:56.661Z,12.11
2022-09-18T00:20:26.841Z,12.14
2022-09-18T00:22:57.034Z,12.13
2022-09-18T00:25:27.229Z,12.14
2022-09-18T00:27:59.853Z,12.16
2022-09-18T00:30:30.226Z,12.20
2022-09-18T00:33:03.018Z,12.25
2022-09-18T00:35:33.206Z,12.30
2022-09-18T00:38:03.357Z,12.32
2022-09-18T00:40:33.523Z,12.31
2022-09-18T00:43:21.795Z,12.32
2022-09-18T00:45:57.617Z,12.32
2022-09-18T00:48:35.998Z,12.34
2022-09-18T00:51:06.392Z,12.32
2022-09-18T00:53:38.932Z,12.33
2022-09-18T00:56:11.741Z,12.35
2022-09-18T00:58:42.277Z,12.35
2022-09-18T01:01:12.482Z,12.33
2022-09-18T01:03:45.344Z,12.31
2022-09-18T01:06:19.465Z,12.29
2022-09-18T01:09:01.150Z,12.25
2022-09-18T01:11:39.260Z,12.25
2022-09-18T01:14:23.934Z,12.20
2022-09-18T01:17:01.283Z,12.19
2022-09-18T01:19:55.436Z,12.18
2022-09-18T01:22:34.505Z,12.16
2022-09-18T01:25:21.036Z,12.14
2022-09-18T01:28:18.825Z,12.13
2022-09-18T01:30:51.925Z,12.12
2022-09-18T01:33:28.850Z,12.13
2022-09-18T01:36:03.325Z,12.17
2022-09-18T01:38:38.606Z,12.17
2022-09-18T01:41:13.001Z,12.14
2022-09-18T01:43:48.629Z,12.11
2022-09-18T01:46:20.780Z,12.03
2022-09-18T01:48:56.333Z,12.08
2022-09-18T01:51:31.468Z,12.03
2022-09-18T01:54:06.118Z,11.96
2022-09-18T01:56:40.081Z,11.93
2022-09-18T01:59:14.754Z,11.96
2022-09-18T02:01:58.389Z,11.97
2022-09-18T02:04:31.067Z,11.77
2022-09-18T02:07:14.311Z,11.83
2022-09-18T02:09:45.863Z,11.76
2022-09-18T02:12:21.401Z,11.71
2022-09-18T02:14:58.233Z,11.67
2022-09-18T02:17:32.960Z,11.73
2022-09-18T02:20:10.277Z,11.68
2022-09-18T02:22:41.930Z,11.71
2022-09-18T02:25:14.786Z,11.67
2022-09-18T02:27:45.314Z,11.66
2022-09-18T02:30:18.400Z,11.64
2022-09-18T02:32:48.517Z,11.68
2022-09-18T02:35:18.745Z,11.61
2022-09-18T02:38:00.094Z,11.63
2022-09-18T02:40:48.456Z,11.59
2022-09-18T02:43:30.226Z,11.50
2022-09-18T02:46:10.886Z,11.47
2022-09-18T02:48:53.907Z,11.54
2022-09-18T02:51:32.294Z,11.66
2022-09-18T02:54:08.800Z,11.63
2022-09-18T02:56:43.828Z,11.61
2022-09-18T02:59:19.278Z,11.55
2022-09-18T03:01:52.923Z,11.50
2022-09-18T03:04:26.243Z,11.49
2022-09-18T03:06:57.108Z,11.39
2022-09-18T03:09:30.084Z,11.43
2022-09-18T03:12:00.223Z,11.45
2022-09-18T03:14:30.529Z,11.30
2022-09-18T03:17:03.264Z,11.27
2022-09-18T03:19:33.550Z,11.35
2022-09-18T03:22:03.684Z,11.36
2022-09-18T03:24:33.794Z,11.36
2022-09-18T03:27:03.929Z,11.33
2022-09-18T03:29:37.809Z,11.22
2022-09-18T03:32:10.727Z,11.21
2022-09-18T03:34:40.875Z,11.17
2022-09-18T03:37:11.076Z,11.21
2022-09-18T03:39:42.683Z,11.22
2022-09-18T03:42:12.884Z,11.22
2022-09-18T03:44:43.021Z,11.21
2022-09-18T03:47:15.914Z,11.19
2022-09-18T03:49:46.248Z,11.25
2022-09-18T03:52:16.461Z,11.25
2022-09-18T03:54:46.580Z,11.16
2022-09-18T03:57:16.795Z,11.19
2022-09-18T03:59:47.892Z,11.20
2022-09-18T04:02:20.695Z,11.24
2022-09-18T04:04:50.889Z,11.14
2022-09-18T04:07:21.133Z,11.10
2022-09-18T04:09:52.713Z,11.14
2022-09-18T04:12:23.319Z,11.11
2022-09-18T04:14:53.649Z,11.06
2022-09-18T04:17:26.582Z,11.07
2022-09-18T04:19:57.932Z,11.18
2022-09-18T04:22:30.435Z,10.99
2022-09-18T04:25:00.612Z,11.07
2022-09-18T04:27:30.759Z,11.14
2022-09-18T04:30:02.326Z,11.13
2022-09-18T04:32:35.290Z,11.09
2022-09-18T04:35:05.971Z,11.18
2022-09-18T04:37:36.255Z,11.22
2022-09-18T04:40:08.028Z,11.17
2022-09-18T04:42:38.745Z,11.20
2022-09-18T04:45:11.026Z,11.13
2022-09-18T04:47:43.981Z,11.16
2022-09-18T04:50:14.196Z,11.20
2022-09-18T04:52:44.404Z,11.17
2022-09-18T04:55:15.277Z,11.18
2022-09-18T04:57:45.421Z,11.26
2022-09-18T05:00:17.942Z,11.25
2022-09-18T05:02:50.707Z,11.17
2022-09-18T05:05:20.832Z,11.18
2022-09-18T05:07:51.058Z,11.22
2022-09-18T05:10:21.264Z,11.28
2022-09-18T05:12:51.412Z,11.13
2022-09-18T05:15:21.905Z,11.18
2022-09-18T05:18:01.723Z,11.28
2022-09-18T05:20:32.777Z,11.09
2022-09-18T05:23:03.243Z,11.30
2022-09-18T05:25:33.310Z,11.38
2022-09-18T05:28:05.312Z,11.35
2022-09-18T05:30:35.575Z,11.39
2022-09-18T05:33:10.178Z,11.32
2022-09-18T05:35:40.529Z,11.34
2022-09-18T05:38:10.709Z,11.34
2022-09-18T05:40:41.371Z,11.31
2022-09-18T05:43:12.329Z,11.31
2022-09-18T05:45:42.818Z,11.36
2022-09-18T05:48:15.572Z,11.37
2022-09-18T05:50:45.696Z,11.31
2022-09-18T05:53:18.215Z,11.21
2022-09-18T05:55:48.390Z,11.22
2022-09-18T05:58:20.169Z,11.17
2022-09-18T06:00:52.240Z,11.21
2022-09-18T06:03:25.091Z,11.18
2022-09-18T06:05:57.568Z,11.26
2022-09-18T06:08:27.781Z,11.24
2022-09-18T06:10:58.278Z,11.18
2022-09-18T06:13:28.501Z,11.42
2022-09-18T06:15:58.705Z,11.66
2022-09-18T06:18:31.643Z,12.14
2022-09-18T06:21:02.389Z,12.56
2022-09-18T06:23:32.571Z,12.42
2022-09-18T06:26:04.029Z,12.48
2022-09-18T06:28:34.799Z,12.56
2022-09-18T06:31:06.670Z,12.62
2022-09-18T06:33:39.492Z,13.00
2022-09-18T06:36:14.141Z,13.46
2022-09-18T06:38:44.851Z,14.04
2022-09-18T06:41:15.125Z,13.14
2022-09-18T06:43:45.323Z,13.30
2022-09-18T06:46:15.491Z,13.84
2022-09-18T06:48:51.495Z,14.29
2022-09-18T06:51:21.782Z,14.45
2022-09-18T06:53:51.980Z,14.69
2022-09-18T06:56:22.133Z,14.59
2022-09-18T06:58:55.010Z,14.86
2022-09-18T07:01:25.169Z,15.25
2022-09-18T07:03:58.109Z,15.17
2022-09-18T07:06:28.944Z,15.12
2022-09-18T07:08:59.209Z,15.45
2022-09-18T07:11:29.330Z,15.63
2022-09-18T07:13:59.483Z,15.66
2022-09-18T07:16:29.700Z,15.61
2022-09-18T07:19:02.911Z,15.94
2022-09-18T07:21:33.465Z,15.91
2022-09-18T07:24:03.669Z,15.95
2022-09-18T07:26:33.894Z,15.48
2022-09-18T07:29:08.057Z,15.86
2022-09-18T07:31:42.799Z,15.48
2022-09-18T07:34:16.651Z,15.45
2022-09-18T07:36:46.760Z,15.12
2022-09-18T07:39:17.149Z,15.34
2022-09-18T07:41:47.410Z,15.93
2022-09-18T07:44:17.577Z,16.24
2022-09-18T07:46:47.776Z,16.08
2022-09-18T07:49:21.053Z,15.83
2022-09-18T07:51:51.418Z,15.94
2022-09-18T07:54:21.853Z,16.05
2022-09-18T07:56:51.918Z,15.91
2022-09-18T07:59:22.074Z,15.81
2022-09-18T08:01:53.083Z,16.13
2022-09-18T08:04:26.150Z,16.54
2022-09-18T08:07:03.574Z,16.13
2022-09-18T08:09:33.997Z,16.01
2022-09-18T08:12:05.870Z,16.09
2022-09-18T08:14:36.016Z,15.98
2022-09-18T08:17:06.600Z,15.90
2022-09-18T08:19:39.950Z,15.84
2022-09-18T08:22:10.264Z,16.41
2022-09-18T08:24:40.410Z,16.86
2022-09-18T08:27:10.759Z,17.12
2022-09-18T08:29:40.912Z,16.93
2022-09-18T08:32:11.001Z,17.15
2022-09-18T08:34:43.730Z,17.31
2022-09-18T08:37:13.841Z,17.67
2022-09-18T08:39:50.024Z,17.56
2022-09-18T08:42:31.111Z,17.46
2022-09-18T08:45:07.090Z,17.27
2022-09-18T08:47:43.807Z,17.49
2022-09-18T08:50:24.551Z,17.51
2022-09-18T08:53:00.881Z,17.63
2022-09-18T08:55:33.997Z,17.37
2022-09-18T08:58:09.837Z,16.69
2022-09-18T09:00:44.376Z,16.88
2022-09-18T09:03:28.280Z,16.88
2022-09-18T09:06:04.365Z,16.94
2022-09-18T09:09:22.887Z,17.02
2022-09-18T09:12:02.254Z,16.60
2022-09-18T09:14:57.208Z,16.99
2022-09-18T09:17:41.821Z,17.32
2022-09-18T09:20:20.487Z,16.88
2022-09-18T09:23:03.705Z,16.15
2022-09-18T09:25:41.255Z,16.53
2022-09-18T09:28:18.021Z,16.64
2022-09-18T09:30:52.062Z,16.60
2022-09-18T09:33:25.003Z,16.20
2022-09-18T09:35:59.134Z,16.14
2022-09-18T09:38:43.875Z,16.11
2022-09-18T09:41:21.183Z,16.16
2022-09-18T09:44:00.949Z,15.94
2022-09-18T09:46:46.755Z,15.92
2022-09-18T09:49:21.937Z,16.12
2022-09-18T09:51:59.947Z,16.33
2022-09-18T09:54:34.369Z,15.90
2022-09-18T09:57:15.271Z,15.49
2022-09-18T09:59:55.613Z,15.48
2022-09-18T10:03:03.227Z,15.56
2022-09-18T10:05:41.703Z,15.82
2022-09-18T10:08:17.677Z,15.63
2022-09-18T10:10:55.485Z,15.83
2022-09-18T10:13:28.496Z,16.23
2022-09-18T10:16:04.029Z,16.75
2022-09-18T10:18:39.535Z,16.66
2022-09-18T10:21:13.707Z,17.03
2022-09-18T10:23:45.712Z,17.31
2022-09-18T10:26:26.482Z,17.14
2022-09-18T10:28:56.645Z,16.66
2022-09-18T10:31:26.865Z,16.40
2022-09-18T10:33:57.010Z,16.76
2022-09-18T10:36:34.318Z,16.81
2022-09-18T10:39:20.514Z,17.14
2022-09-18T10:41:53.287Z,16.81
2022-09-18T10:44:27.643Z,16.75
2022-09-18T10:47:01.565Z,17.04
2022-09-18T10:49:36.249Z,17.13
2022-09-18T10:52:27.332Z,16.73
2022-09-18T10:55:12.695Z,16.74
2022-09-18T10:57:47.924Z,17.05
2022-09-18T11:00:38.183Z,17.30
2022-09-18T11:03:37.852Z,17.37
2022-09-18T11:06:11.366Z,17.24
2022-09-18T11:08:46.766Z,17.17
2022-09-18T11:11:25.460Z,17.13
2022-09-18T11:14:01.754Z,16.82
2022-09-18T11:16:34.895Z,16.75
2022-09-18T11:19:09.114Z,16.53
2022-09-18T11:21:45.805Z,16.39
2022-09-18T11:24:23.854Z,16.30
2022-09-18T11:26:56.829Z,16.28
2022-09-18T11:29:33.736Z,16.57
2022-09-18T11:32:14.584Z,16.89
2022-09-18T11:34:50.016Z,16.57
2022-09-18T11:37:33.709Z,16.23
2022-09-18T11:40:08.661Z,16.48
2022-09-18T11:42:45.128Z,16.77
2022-09-18T11:45:31.560Z,17.07
2022-09-18T11:48:11.961Z,17.19
2022-09-18T11:50:45.191Z,17.21
2022-09-18T11:53:20.721Z,17.06
2022-09-18T11:55:59.751Z,17.14
2022-09-18T11:58:34.726Z,17.28
2022-09-18T12:01:17.606Z,16.97
2022-09-18T12:03:52.649Z,16.84
2022-09-18T12:06:32.105Z,16.65
2022-09-18T12:09:10.943Z,16.70
2022-09-18T12:11:46.421Z,16.70
2022-09-18T12:14:23.504Z,16.74
2022-09-18T12:17:01.198Z,16.78
2022-09-18T12:19:35.920Z,16.86
2022-09-18T12:22:12.366Z,17.05
2022-09-18T12:24:42.562Z,16.94
2022-09-18T12:27:27.641Z,16.72
2022-09-18T12:30:08.998Z,16.75
2022-09-18T12:33:01.690Z,16.77
2022-09-18T12:35:50.924Z,16.57
2022-09-18T12:38:35.023Z,16.74
2022-09-18T12:41:24.997Z,16.53
2022-09-18T12:44:18.433Z,16.70
2022-09-18T12:47:00.667Z,16.83
2022-09-18T12:49:52.594Z,16.73
2022-09-18T12:52:34.855Z,16.82
2022-09-18T12:55:29.254Z,16.89
2022-09-18T12:58:16.664Z,16.73
2022-09-18T13:00:50.034Z,16.38
2022-09-18T13:03:28.253Z,16.21
2022-09-18T13:06:04.803Z,16.18
2022-09-18T13:08:41.823Z,16.26
2022-09-18T13:11:16.417Z,16.45
2022-09-18T13:13:52.854Z,16.48
2022-09-18T13:16:37.502Z,16.58
2022-09-18T13:19:10.516Z,16.66
2022-09-18T13:21:47.171Z,16.47
2022-09-18T13:24:20.889Z,16.60
2022-09-18T13:26:53.443Z,16.49
2022-09-18T13:29:51.875Z,16.48
2022-09-18T13:32:25.101Z,16.53
2022-09-18T13:34:57.755Z,16.37
2022-09-18T13:37:32.785Z,16.48
2022-09-18T13:40:10.497Z,16.11
2022-09-18T13:42:43.473Z,16.01
2022-09-18T13:45:21.706Z,15.81
2022-09-18T13:48:06.091Z,15.79
2022-09-18T13:50:38.255Z,15.70
2022-09-18T13:53:41.901Z,15.76
2022-09-18T13:56:14.164Z,15.63
2022-09-18T13:58:56.153Z,15.61
2022-09-18T14:01:56.344Z,15.69
2022-09-18T14:05:08.285Z,15.80
2022-09-18T14:07:58.118Z,15.82
2022-09-18T14:10:34.315Z,15.94
2022-09-18T14:13:22.966Z,15.90
2022-09-18T14:15:56.959Z,15.73
2022-09-18T14:18:31.098Z,15.63
2022-09-18T14:21:16.913Z,15.73
2022-09-18T14:24:39.272Z,15.61
2022-09-18T14:27:37.352Z,15.64
2022-09-18T14:30:23.946Z,15.69
2022-09-18T14:33:19.848Z,15.74
2022-09-18T14:35:58.778Z,15.80
2022-09-18T14:38:35.442Z,15.86
2022-09-18T14:41:19.500Z,15.93
2022-09-18T14:43:57.190Z,15.90
2022-09-18T14:46:29.113Z,15.86
2022-09-18T14:49:00.032Z,15.81
2022-09-18T14:51:44.907Z,15.91
2022-09-18T14:54:25.901Z,15.82
2022-09-18T14:57:02.026Z,15.57
2022-09-18T14:59:37.401Z,15.68
2022-09-18T15:02:20.719Z,15.56
2022-09-18T15:04:51.583Z,15.63
2022-09-18T15:07:23.988Z,15.67
2022-09-18T15:09:57.022Z,15.71
2022-09-18T15:12:33.550Z,15.60
2022-09-18T15:15:33.963Z,15.60
2022-09-18T15:18:05.712Z,15.59
2022-09-18T15:20:35.864Z,15.54
2022-09-18T15:23:20.928Z,15.38
2022-09-18T15:25:54.370Z,15.43
2022-09-18T15:28:27.308Z,15.45
2022-09-18T15:31:04.851Z,15.46
2022-09-18T15:33:37.448Z,15.35
2022-09-18T15:36:08.590Z,15.40
2022-09-18T15:38:43.668Z,15.43
2022-09-18T15:41:31.939Z,15.41
2022-09-18T15:44:02.600Z,15.26
2022-09-18T15:46:37.238Z,15.24
2022-09-18T15:49:31.458Z,15.21
2022-09-18T15:52:01.799Z,15.14
2022-09-18T15:54:32.051Z,15.05
2022-09-18T15:57:03.457Z,15.11
2022-09-18T15:59:36.965Z,15.02
2022-09-18T16:02:27.805Z,15.02
2022-09-18T16:04:59.356Z,14.92
2022-09-18T16:07:30.526Z,14.87
2022-09-18T16:10:01.345Z,14.84
2022-09-18T16:12:42.709Z,14.79
2022-09-18T16:15:24.069Z,14.67
2022-09-18T16:18:27.417Z,14.61
2022-09-18T16:21:09.011Z,14.61
2022-09-18T16:23:50.576Z,14.60
2022-09-18T16:26:31.532Z,14.47
2022-09-18T16:29:04.398Z,14.38
2022-09-18T16:31:37.587Z,14.14
2022-09-18T16:34:22.129Z,14.09
2022-09-18T16:36:56.144Z,14.07
2022-09-18T16:39:28.833Z,13.90
2022-09-18T16:41:58.997Z,13.82
2022-09-18T16:44:29.303Z,13.79
2022-09-18T16:47:04.199Z,13.75
2022-09-18T16:49:38.051Z,13.58
2022-09-18T16:52:11.112Z,13.44
2022-09-18T16:54:41.293Z,13.34
2022-09-18T16:57:14.132Z,13.24
2022-09-18T16:59:46.267Z,13.13
2022-09-18T17:02:19.355Z,13.05
2022-09-18T17:04:49.675Z,12.93
2022-09-18T17:07:22.490Z,12.87
2022-09-18T17:09:56.557Z,12.79
2022-09-18T17:12:29.669Z,12.73
2022-09-18T17:15:00.837Z,12.68
2022-09-18T17:17:31.159Z,12.63
2022-09-18T17:20:01.512Z,12.59
2022-09-18T17:22:34.636Z,12.62
2022-09-18T17:25:04.746Z,12.58
2022-09-18T17:27:35.030Z,12.63
2022-09-18T17:30:05.370Z,12.66
2022-09-18T17:32:35.631Z,12.65
2022-09-18T17:35:09.632Z,12.64
2022-09-18T17:37:42.500Z,12.75
2022-09-18T17:40:15.589Z,12.66
2022-09-18T17:42:45.960Z,12.62
2022-09-18T17:45:18.983Z,12.57
2022-09-18T17:47:53.545Z,12.47
2022-09-18T17:50:26.106Z,12.40
2022-09-18T17:52:58.902Z,12.31
2022-09-18T17:55:29.099Z,12.22
2022-09-18T17:57:59.284Z,12.15
2022-09-18T18:00:31.314Z,12.08
2022-09-18T18:03:03.784Z,11.92
2022-09-18T18:05:34.048Z,11.80
2022-09-18T18:08:07.639Z,11.70
2022-09-18T18:10:39.585Z,11.65
2022-09-18T18:13:09.770Z,11.61
2022-09-18T18:15:40.120Z,11.55
2022-09-18T18:18:10.319Z,11.49
2022-09-18T18:20:40.790Z,11.43
2022-09-18T18:23:14.640Z,11.36
2022-09-18T18:25:45.016Z,11.33
2022-09-18T18:28:15.255Z,11.26
2022-09-18T18:30:46.183Z,11.21
2022-09-18T18:33:19.556Z,11.18
2022-09-18T18:35:49.732Z,11.09
2022-09-18T18:38:22.991Z,11.07
2022-09-18T18:40:53.839Z,11.07
2022-09-18T18:43:24.607Z,11.05
2022-09-18T18:45:56.654Z,10.93
2022-09-18T18:48:34.063Z,11.07
2022-09-18T18:51:06.929Z,10.97
2022-09-18T18:53:39.987Z,10.88
2022-09-18T18:56:13.317Z,10.78
2022-09-18T18:58:44.532Z,10.70
2022-09-18T19:01:16.701Z,10.63
2022-09-18T19:03:53.119Z,10.62
2022-09-18T19:06:24.003Z,10.52
2022-09-18T19:09:01.223Z,10.47
2022-09-18T19:11:34.891Z,10.40
2022-09-18T19:14:05.646Z,10.36
2022-09-18T19:16:35.832Z,10.31
2022-09-18T19:19:09.695Z,10.29
2022-09-18T19:21:40.925Z,10.22
2022-09-18T19:24:14.058Z,10.19
2022-09-18T19:26:45.581Z,10.14
2022-09-18T19:29:18.544Z,10.08
2022-09-18T19:31:50.455Z,10.06
2022-09-18T19:34:24.056Z,10.01
2022-09-18T19:36:54.464Z,9.97
2022-09-18T19:39:27.423Z,9.93
2022-09-18T19:42:01.197Z,9.86
2022-09-18T19:44:34.812Z,9.81
2022-09-18T19:47:09.292Z,9.75
2022-09-18T19:49:40.810Z,9.70
2022-09-18T19:52:19.250Z,9.73
2022-09-18T19:54:53.370Z,9.77
2022-09-18T19:57:24.400Z,9.87
2022-09-18T19:59:57.367Z,10.03
2022-09-18T20:02:28.260Z,10.12
2022-09-18T20:04:58.871Z,10.15
2022-09-18T20:07:28.988Z,10.19
2022-09-18T20:10:17.355Z,10.18
2022-09-18T20:12:48.785Z,10.18
2022-09-18T20:15:18.907Z,10.17
2022-09-18T20:17:49.411Z,10.18
2022-09-18T20:20:22.194Z,10.18
2022-09-18T20:22:55.774Z,10.19
2022-09-18T20:25:28.562Z,10.21
2022-09-18T20:27:58.938Z,10.26
2022-09-18T20:30:32.905Z,10.32
2022-09-18T20:33:04.395Z,10.38
2022-09-18T20:35:38.560Z,10.49
2022-09-18T20:38:08.853Z,10.53
2022-09-18T20:40:42.249Z,10.54
2022-09-18T20:43:12.371Z,10.53
2022-09-18T20:45:42.544Z,10.48
2022-09-18T20:48:13.078Z,10.41
2022-09-18T20:50:44.539Z,10.39
2022-09-18T20:53:14.664Z,10.34
2022-09-18T20:55:48.049Z,10.32
2022-09-18T20:58:18.802Z,10.31
2022-09-18T21:00:49.694Z,10.28
2022-09-18T21:03:21.295Z,10.26
2022-09-18T21:06:02.850Z,10.19
2022-09-18T21:08:43.736Z,10.16
2022-09-18T21:11:18.596Z,10.10
2022-09-18T21:13:54.917Z,10.09
2022-09-18T21:16:27.027Z,10.11
2022-09-18T21:19:02.216Z,10.13
2022-09-18T21:21:35.464Z,10.12
2022-09-18T21:24:06.448Z,10.15
2022-09-18T21:26:40.482Z,10.20
2022-09-18T21:29:13.465Z,10.25
2022-09-18T21:31:45.247Z,10.30
2022-09-18T21:34:17.173Z,10.35
2022-09-18T21:36:47.314Z,10.38
2022-09-18T21:39:17.776Z,10.31
2022-09-18T21:41:52.137Z,10.37
2022-09-18T21:44:27.202Z,10.26
2022-09-18T21:46:59.020Z,10.28
2022-09-18T21:49:30.357Z,10.24
2022-09-18T21:52:03.056Z,10.20
2022-09-18T21:54:33.934Z,10.04
2022-09-18T21:57:07.592Z,10.02
2022-09-18T21:59:42.292Z,9.99
2022-09-18T22:02:13.904Z,9.95
2022-09-18T22:04:45.850Z,10.03
2022-09-18T22:07:18.342Z,10.04
2022-09-18T22:09:49.249Z,10.06
2022-09-18T22:12:22.160Z,10.04
2022-09-18T22:14:52.632Z,10.01
2022-09-18T22:17:23.034Z,9.98
2022-09-18T22:19:53.576Z,9.95
2022-09-18T22:22:43.828Z,9.85
2022-09-18T22:25:14.022Z,9.84
2022-09-18T22:27:46.898Z,9.86
2022-09-18T22:30:18.674Z,9.87
2022-09-18T22:32:49.832Z,9.88
2022-09-18T22:35:20.517Z,9.88
2022-09-18T22:37:50.733Z,9.88
2022-09-18T22:40:21.435Z,9.93
2022-09-18T22:42:54.307Z,9.90
2022-09-18T22:45:24.659Z,9.88
2022-09-18T22:47:55.005Z,9.86
2022-09-18T22:50:26.272Z,9.83
2022-09-18T22:52:56.463Z,9.78
2022-09-18T22:55:27.407Z,9.74
2022-09-18T22:58:00.537Z,9.76
2022-09-18T23:00:30.795Z,9.76
2022-09-18T23:03:01.325Z,9.79
2022-09-18T23:05:31.547Z,9.79
2022-09-18T23:08:01.855Z,9.81
2022-09-18T23:10:33.369Z,9.80
2022-09-18T23:13:06.179Z,9.78
2022-09-18T23:15:39.454Z,9.79
2022-09-18T23:18:09.675Z,9.82
2022-09-18T23:20:40.100Z,9.83
2022-09-18T23:23:10.346Z,9.83
2022-09-18T23:25:40.655Z,9.85
2022-09-18T23:28:14.173Z,9.94
2022-09-18T23:30:44.589Z,9.96
2022-09-18T23:33:14.772Z,10.02
2022-09-18T23:35:45.024Z,10.10
2022-09-18T23:38:15.261Z,10.19
2022-09-18T23:40:45.844Z,10.21
2022-09-18T23:43:18.694Z,10.19
2022-09-18T23:45:49.005Z,10.27
2022-09-18T23:48:19.181Z,10.29
2022-09-18T23:50:51.644Z,10.29
2022-09-18T23:53:22.954Z,10.30
2022-09-18T23:55:53.515Z,10.34
2022-09-18T23:58:26.371Z,10.35
